Terminal Aerodrome Forecast
Issued by NWS

Home | Current Version | Previous Version | Text Only | Print | Product List | Glossary On
Versions: 1 2 3 4 5 6 7 8 9 10 11 12 13 14 15 16 17
372
FTUS46 KHNX 140520
TAFMER
TAF
KMER 140520Z 1406/1506 00000KT P6SM SKC
     FM140800 VRB03KT 4SM BR SKC
     FM141000 VRB03KT 2SM BR SKC
      TEMPO 1412/1416 1/2SM FG VV001
     FM141800 32005KT 5SM HZ SKC
     FM142000 34011G15KT P6SM SKC
     FM150300 26003KT 4SM BR SKC=

USA.gov is the U.S. government's official web portal to all federal, state and local government web resources and services.